createdAt,value
2019-03-15T00:01:43.390Z,14.90
2019-03-15T00:04:14.203Z,14.38
2019-03-15T00:06:45.110Z,13.10
2019-03-15T00:09:15.998Z,14.75
2019-03-15T00:11:46.805Z,14.35
2019-03-15T00:14:17.656Z,14.98
2019-03-15T00:16:48.414Z,15.32
2019-03-15T00:19:19.358Z,14.98
2019-03-15T00:21:50.983Z,14.63
2019-03-15T00:24:21.779Z,15.72
2019-03-15T00:26:52.573Z,15.15
2019-03-15T00:29:23.504Z,13.30
2019-03-15T00:31:55.356Z,14.40
2019-03-15T00:34:26.228Z,14.23
2019-03-15T00:36:57.034Z,14.00
2019-03-15T00:39:27.858Z,15.23
2019-03-15T00:41:58.647Z,14.83
2019-03-15T00:44:29.428Z,12.98
2019-03-15T00:47:00.227Z,15.38
2019-03-15T00:49:32.112Z,15.30
2019-03-15T00:52:02.930Z,15.20
2019-03-15T00:54:33.749Z,15.18
2019-03-15T00:57:05.608Z,15.43
2019-03-15T00:59:36.418Z,16.10
2019-03-15T01:02:07.192Z,15.00
2019-03-15T01:04:38.028Z,16.25
2019-03-15T01:07:08.928Z,15.18
2019-03-15T01:09:40.831Z,15.08
2019-03-15T01:12:11.715Z,16.00
2019-03-15T01:14:42.618Z,15.48
2019-03-15T01:17:14.522Z,16.25
2019-03-15T01:19:45.346Z,17.00
2019-03-15T01:22:16.998Z,15.30
2019-03-15T01:24:47.794Z,16.85
2019-03-15T01:27:18.645Z,17.50
2019-03-15T01:29:49.621Z,16.60
2019-03-15T01:32:20.435Z,16.37
2019-03-15T01:34:51.281Z,17.00
2019-03-15T01:37:22.084Z,17.15
2019-03-15T01:39:52.914Z,16.60
2019-03-15T01:42:23.718Z,16.67
2019-03-15T01:44:54.582Z,16.50
2019-03-15T01:47:25.443Z,16.00
2019-03-15T01:49:56.249Z,17.30
2019-03-15T01:52:27.051Z,16.25
2019-03-15T01:54:57.943Z,17.87
2019-03-15T01:57:28.847Z,16.40
2019-03-15T01:59:59.714Z,17.05
2019-03-15T02:02:30.535Z,16.70
2019-03-15T02:05:01.406Z,16.42
2019-03-15T02:07:32.279Z,16.70
2019-03-15T02:10:03.609Z,16.57
2019-03-15T02:12:34.411Z,16.30
2019-03-15T02:15:09.340Z,16.05
2019-03-15T02:17:40.148Z,16.30
2019-03-15T02:20:10.984Z,16.87
2019-03-15T02:22:42.804Z,17.10
2019-03-15T02:25:13.635Z,16.10
2019-03-15T02:27:44.558Z,17.48
2019-03-15T02:30:21.546Z,16.70
2019-03-15T02:32:53.266Z,17.27
2019-03-15T02:35:24.111Z,17.40
2019-03-15T02:37:54.908Z,16.90
2019-03-15T02:40:25.783Z,16.50
2019-03-15T02:42:56.609Z,16.07
2019-03-15T02:45:27.476Z,17.15
2019-03-15T02:47:58.324Z,16.80
2019-03-15T02:50:29.426Z,17.02
2019-03-15T02:53:00.614Z,16.65
2019-03-15T02:55:31.473Z,16.15
2019-03-15T02:58:02.401Z,17.32
2019-03-15T03:00:33.259Z,17.23
2019-03-15T03:03:04.064Z,17.23
2019-03-15T03:05:34.999Z,17.07
2019-03-15T03:08:05.930Z,15.58
2019-03-15T03:10:36.791Z,17.30
2019-03-15T03:13:08.652Z,18.05
2019-03-15T03:15:39.593Z,17.52
2019-03-15T03:18:10.534Z,17.23
2019-03-15T03:20:41.409Z,18.10
2019-03-15T03:23:14.108Z,17.50
2019-03-15T03:25:45.046Z,16.55
2019-03-15T03:28:15.836Z,17.25
2019-03-15T03:30:47.165Z,18.35
2019-03-15T03:33:18.280Z,17.23
2019-03-15T03:35:49.106Z,19.98
2019-03-15T03:38:19.920Z,18.70
2019-03-15T03:40:50.845Z,19.17
2019-03-15T03:43:21.592Z,19.80
2019-03-15T03:45:52.496Z,17.70
2019-03-15T03:48:23.283Z,18.50
2019-03-15T03:50:54.129Z,18.92
2019-03-15T03:53:25.877Z,18.73
2019-03-15T03:56:01.338Z,20.20
2019-03-15T03:58:39.281Z,19.17
2019-03-15T04:01:09.343Z,18.50
2019-03-15T04:03:44.830Z,18.05
2019-03-15T04:06:15.671Z,17.92
2019-03-15T04:08:48.132Z,18.45
2019-03-15T04:11:19.319Z,18.80
2019-03-15T04:13:51.731Z,18.35
2019-03-15T04:16:22.783Z,18.10
2019-03-15T04:18:55.965Z,17.65
2019-03-15T04:21:28.485Z,18.77
2019-03-15T04:24:00.084Z,18.73
2019-03-15T04:26:32.878Z,19.20
2019-03-15T04:29:03.658Z,18.55
2019-03-15T04:31:34.770Z,18.35
2019-03-15T04:34:05.903Z,18.82
2019-03-15T04:36:36.833Z,18.07
2019-03-15T04:39:08.084Z,17.52
2019-03-15T04:41:40.627Z,20.82
2019-03-15T04:44:17.833Z,21.82
2019-03-15T04:46:48.687Z,24.52
2019-03-15T04:49:19.505Z,20.82
2019-03-15T04:51:50.435Z,19.92
2019-03-15T04:54:21.216Z,18.92
2019-03-15T04:56:54.701Z,19.33
2019-03-15T04:59:26.957Z,16.52
2019-03-15T05:01:59.559Z,17.60
2019-03-15T05:04:30.419Z,19.10
2019-03-15T05:07:01.433Z,18.80
2019-03-15T05:09:32.392Z,16.60
2019-03-15T05:12:06.467Z,18.60
2019-03-15T05:14:39.034Z,18.15
2019-03-15T05:17:09.961Z,15.20
2019-03-15T05:19:40.913Z,20.48
2019-03-15T05:22:11.847Z,20.48
2019-03-15T05:24:43.883Z,19.77
2019-03-15T05:27:14.952Z,21.05
2019-03-15T05:29:47.939Z,19.37
2019-03-15T05:32:18.830Z,17.92
2019-03-15T05:34:50.740Z,17.48
2019-03-15T05:37:26.159Z,19.50
2019-03-15T05:39:58.608Z,18.85
2019-03-15T05:42:32.115Z,18.55
2019-03-15T05:47:35.972Z,16.70
2019-03-15T05:50:15.055Z,18.73
2019-03-15T05:52:46.343Z,18.67
2019-03-15T05:55:17.318Z,19.30
2019-03-15T05:57:48.299Z,17.65
2019-03-15T06:00:22.755Z,19.10
2019-03-15T06:02:54.892Z,19.00
2019-03-15T06:05:26.877Z,20.60
2019-03-15T06:07:58.024Z,20.10
2019-03-15T06:10:30.057Z,20.88
2019-03-15T06:13:01.400Z,21.07
2019-03-15T06:15:32.478Z,20.57
2019-03-15T06:18:06.755Z,23.50
2019-03-15T06:20:37.696Z,20.10
2019-03-15T06:23:08.650Z,19.42
2019-03-15T06:25:43.336Z,18.07
2019-03-15T06:28:14.446Z,17.52
2019-03-15T06:30:47.213Z,15.70
2019-03-15T06:33:19.754Z,18.32
2019-03-15T06:35:50.867Z,17.95
2019-03-15T06:38:33.498Z,17.42
2019-03-15T06:41:00.352Z,18.62
2019-03-15T06:43:31.613Z,17.70
2019-03-15T06:46:02.596Z,16.93
2019-03-15T06:48:33.977Z,18.35
2019-03-15T06:51:09.112Z,19.80
2019-03-15T06:53:38.672Z,17.70
2019-03-15T06:56:09.650Z,16.93
2019-03-15T06:58:40.701Z,17.55
2019-03-15T07:01:13.313Z,17.48
2019-03-15T07:03:44.459Z,17.07
2019-03-15T07:06:15.495Z,15.20
2019-03-15T07:08:46.440Z,16.90
2019-03-15T07:11:17.938Z,16.55
2019-03-15T07:13:48.980Z,17.02
2019-03-15T07:16:19.998Z,18.10
2019-03-15T07:18:51.025Z,17.55
2019-03-15T07:21:22.182Z,18.37
2019-03-15T07:23:53.057Z,17.37
2019-03-15T07:26:26.359Z,17.03
2019-03-15T07:28:57.544Z,18.15
2019-03-15T07:31:28.526Z,17.87
2019-03-15T07:33:59.774Z,17.20
2019-03-15T07:36:30.846Z,17.87
2019-03-15T07:39:01.955Z,15.80
2019-03-15T07:41:33.114Z,16.05
2019-03-15T07:44:04.290Z,16.17
2019-03-15T07:46:35.430Z,16.85
2019-03-15T07:49:07.390Z,17.17
2019-03-15T07:51:38.985Z,16.10
2019-03-15T07:54:11.482Z,17.42
2019-03-15T07:56:42.765Z,16.32
2019-03-15T07:59:14.218Z,16.07
2019-03-15T08:01:45.181Z,14.73
2019-03-15T08:04:19.785Z,15.23
2019-03-15T08:06:50.771Z,16.82
2019-03-15T08:09:21.917Z,14.43
2019-03-15T08:11:53.084Z,16.40
2019-03-15T08:14:24.178Z,14.07
2019-03-15T08:16:55.353Z,13.20
2019-03-15T08:19:26.944Z,13.70
2019-03-15T08:21:58.115Z,15.78
2019-03-15T08:24:51.047Z,14.18
2019-03-15T08:27:16.402Z,14.00
2019-03-15T08:29:47.712Z,15.20
2019-03-15T08:32:18.794Z,13.32
2019-03-15T08:34:49.878Z,13.58
2019-03-15T08:37:20.862Z,15.13
2019-03-15T08:39:51.816Z,15.32
2019-03-15T08:42:22.881Z,15.13
2019-03-15T08:44:54.973Z,14.38
2019-03-15T08:47:25.928Z,15.70
2019-03-15T08:49:57.067Z,15.58
2019-03-15T08:52:28.089Z,15.05
2019-03-15T08:55:05.171Z,13.83
2019-03-15T08:57:32.029Z,14.93
2019-03-15T09:00:03.572Z,15.03
2019-03-15T09:02:34.685Z,15.13
2019-03-15T09:05:08.463Z,15.13
2019-03-15T09:07:39.783Z,16.02
2019-03-15T09:10:22.558Z,13.72
2019-03-15T09:12:50.695Z,14.45
2019-03-15T09:15:24.823Z,13.08
2019-03-15T09:17:58.416Z,12.88
2019-03-15T09:20:30.602Z,13.20
2019-03-15T09:23:02.249Z,12.78
2019-03-15T09:25:35.241Z,14.00
2019-03-15T09:28:07.198Z,15.63
2019-03-15T09:30:42.063Z,15.45
2019-03-15T09:33:14.943Z,13.58
2019-03-15T09:35:48.728Z,12.90
2019-03-15T09:38:19.767Z,14.95
2019-03-15T09:40:50.825Z,16.02
2019-03-15T09:43:26.442Z,13.87
2019-03-15T09:45:59.053Z,13.68
2019-03-15T09:48:33.575Z,14.20
2019-03-15T09:51:07.863Z,14.60
2019-03-15T09:53:41.583Z,14.40
2019-03-15T09:56:13.226Z,14.30
2019-03-15T09:58:48.896Z,15.13
2019-03-15T10:01:34.362Z,16.52
2019-03-15T10:03:52.728Z,15.90
2019-03-15T10:06:29.159Z,15.08
2019-03-15T10:08:56.736Z,14.73
2019-03-15T10:11:33.546Z,13.75
2019-03-15T10:14:06.688Z,14.65
2019-03-15T10:16:38.427Z,14.60
2019-03-15T10:19:09.988Z,14.70
2019-03-15T10:21:42.740Z,14.07
2019-03-15T10:24:18.457Z,13.93
2019-03-15T10:26:49.886Z,14.15
2019-03-15T10:29:29.555Z,14.18
2019-03-15T10:32:03.252Z,12.13
2019-03-15T10:34:37.701Z,14.10
2019-03-15T10:37:10.751Z,13.88
2019-03-15T10:39:41.790Z,14.00
2019-03-15T10:42:13.088Z,12.70
2019-03-15T10:44:44.244Z,15.32
2019-03-15T10:47:19.908Z,15.08
2019-03-15T10:49:56.093Z,13.53
2019-03-15T10:52:30.708Z,14.98
2019-03-15T10:55:01.903Z,12.85
2019-03-15T10:57:34.687Z,13.98
2019-03-15T11:00:21.272Z,13.35
2019-03-15T11:02:55.432Z,14.00
2019-03-15T11:05:29.225Z,13.65
2019-03-15T11:08:04.853Z,15.68
2019-03-15T11:10:36.154Z,13.32
2019-03-15T11:13:08.025Z,14.25
2019-03-15T11:15:40.844Z,13.60
2019-03-15T11:18:14.719Z,14.20
2019-03-15T11:20:47.470Z,13.15
2019-03-15T11:23:21.279Z,13.13
2019-03-15T11:25:56.852Z,12.50
2019-03-15T11:28:28.567Z,13.00
2019-03-15T11:31:00.904Z,13.55
2019-03-15T11:33:35.214Z,11.50
2019-03-15T11:36:06.487Z,14.10
2019-03-15T11:38:37.822Z,12.80
2019-03-15T11:41:08.876Z,12.78
2019-03-15T11:43:39.990Z,13.22
2019-03-15T11:46:11.057Z,13.75
2019-03-15T11:48:42.341Z,12.47
2019-03-15T11:51:13.523Z,12.90
2019-03-15T11:53:44.525Z,13.65
2019-03-15T11:56:26.515Z,13.70
2019-03-15T11:58:48.438Z,14.00
2019-03-15T12:01:19.456Z,13.43
2019-03-15T12:03:53.282Z,13.78
2019-03-15T12:06:23.674Z,13.13
2019-03-15T12:08:55.142Z,13.40
2019-03-15T12:11:26.159Z,12.58
2019-03-15T12:13:57.168Z,12.95
2019-03-15T12:16:28.201Z,13.22
2019-03-15T12:18:59.285Z,13.18
2019-03-15T12:21:30.248Z,13.45
2019-03-15T12:24:01.373Z,12.82
2019-03-15T12:26:40.245Z,13.45
2019-03-15T12:29:36.570Z,13.53
2019-03-15T12:31:42.058Z,13.68
2019-03-15T12:34:19.508Z,12.65
2019-03-15T12:36:53.489Z,13.48
2019-03-15T12:39:27.722Z,13.70
2019-03-15T12:42:07.147Z,13.62
2019-03-15T12:44:38.227Z,13.15
2019-03-15T12:47:11.958Z,13.20
2019-03-15T12:49:43.130Z,13.40
2019-03-15T12:52:23.406Z,13.43
2019-03-15T12:54:56.219Z,12.82
2019-03-15T12:57:27.363Z,13.83
2019-03-15T13:00:00.268Z,13.35
2019-03-15T13:02:34.666Z,12.73
2019-03-15T13:05:05.879Z,12.20
2019-03-15T13:07:39.645Z,12.05
2019-03-15T13:10:19.990Z,13.38
2019-03-15T13:12:51.249Z,11.57
2019-03-15T13:15:22.210Z,11.70
2019-03-15T13:17:55.770Z,12.80
2019-03-15T13:20:30.803Z,12.75
2019-03-15T13:23:03.626Z,12.55
2019-03-15T13:25:37.364Z,12.78
2019-03-15T13:28:09.677Z,13.03
2019-03-15T13:30:41.016Z,12.00
2019-03-15T13:33:22.097Z,10.90
2019-03-15T13:35:59.133Z,13.35
2019-03-15T13:38:31.774Z,12.88
2019-03-15T13:41:05.092Z,13.62
2019-03-15T13:43:38.974Z,13.03
2019-03-15T13:46:12.753Z,12.40
2019-03-15T13:48:43.886Z,12.68
2019-03-15T13:51:15.007Z,14.43
2019-03-15T13:53:49.176Z,13.70
2019-03-15T13:56:20.368Z,14.05
2019-03-15T13:58:57.022Z,12.68
2019-03-15T14:01:24.440Z,12.80
2019-03-15T14:03:55.484Z,14.87
2019-03-15T14:06:26.734Z,14.68
2019-03-15T14:08:57.760Z,13.45
2019-03-15T14:14:39.027Z,12.80
2019-03-15T14:17:10.223Z,13.60
2019-03-15T14:19:50.281Z,12.78
2019-03-15T14:22:22.537Z,13.35
2019-03-15T14:24:54.177Z,12.43
2019-03-15T14:27:36.946Z,13.13
2019-03-15T14:32:29.694Z,13.45
2019-03-15T14:38:05.856Z,14.95
2019-03-15T14:40:40.038Z,15.25
2019-03-15T14:43:11.145Z,16.25
2019-03-15T14:45:42.239Z,14.90
2019-03-15T14:48:13.373Z,15.40
2019-03-15T14:50:44.460Z,15.53
2019-03-15T14:53:15.542Z,16.75
2019-03-15T14:55:46.971Z,18.15
2019-03-15T14:58:19.601Z,17.00
2019-03-15T15:01:05.261Z,17.20
2019-03-15T15:03:39.069Z,15.68
2019-03-15T15:06:10.104Z,19.50
2019-03-15T15:12:10.671Z,21.70
2019-03-15T15:18:01.724Z,16.65
2019-03-15T15:20:32.936Z,15.28
2019-03-15T15:23:06.057Z,17.95
2019-03-15T15:25:37.183Z,16.20
2019-03-15T15:28:08.429Z,16.07
2019-03-15T15:30:39.480Z,18.62
2019-03-15T15:33:10.784Z,18.73
2019-03-15T15:35:44.067Z,19.70
2019-03-15T15:38:15.534Z,20.50
2019-03-15T15:40:47.010Z,20.52
2019-03-15T15:43:18.092Z,20.02
2019-03-15T15:45:49.285Z,18.70
2019-03-15T15:48:20.553Z,18.37
2019-03-15T15:50:51.774Z,16.85
2019-03-15T15:53:22.878Z,18.45
2019-03-15T15:55:54.008Z,17.90
2019-03-15T15:58:25.136Z,17.73
2019-03-15T16:00:56.189Z,19.05
2019-03-15T16:03:27.101Z,19.25
2019-03-15T16:05:58.248Z,17.30
2019-03-15T16:11:01.996Z,15.95
2019-03-15T16:13:33.169Z,17.48
2019-03-15T16:16:04.178Z,17.52
2019-03-15T16:18:35.279Z,19.05
2019-03-15T16:21:06.459Z,17.37
2019-03-15T16:23:38.700Z,19.20
2019-03-15T16:26:09.907Z,16.25
2019-03-15T16:28:40.908Z,20.50
2019-03-15T16:31:12.041Z,20.30
2019-03-15T16:33:43.252Z,19.57
2019-03-15T16:36:15.458Z,19.92
2019-03-15T16:38:46.832Z,22.02
2019-03-15T16:41:17.923Z,22.55
2019-03-15T16:43:49.028Z,23.65
2019-03-15T16:46:20.263Z,22.87
2019-03-15T16:49:01.732Z,22.58
2019-03-15T16:51:33.950Z,24.00
2019-03-15T16:54:04.979Z,23.18
2019-03-15T16:56:39.705Z,26.33
2019-03-15T16:59:13.934Z,26.45
2019-03-15T17:01:45.674Z,25.48
2019-03-15T17:04:16.796Z,25.30
2019-03-15T17:06:47.860Z,25.92
2019-03-15T17:09:21.427Z,24.87
2019-03-15T17:11:54.186Z,27.80
2019-03-15T17:14:26.117Z,28.03
2019-03-15T17:16:57.436Z,29.55
2019-03-15T17:19:30.731Z,29.80
2019-03-15T17:22:04.932Z,29.98
2019-03-15T17:24:39.732Z,28.07
2019-03-15T17:27:11.973Z,29.82
2019-03-15T17:29:43.310Z,31.23
2019-03-15T17:32:15.883Z,30.00
2019-03-15T17:38:00.694Z,30.92
2019-03-15T17:40:32.214Z,33.08
2019-03-15T17:43:05.900Z,31.20
2019-03-15T17:45:41.421Z,33.18
2019-03-15T17:48:14.787Z,35.33
2019-03-15T17:50:45.887Z,34.95
2019-03-15T17:53:16.827Z,34.15
2019-03-15T17:55:49.637Z,34.63
2019-03-15T17:58:21.703Z,34.53
2019-03-15T18:00:55.175Z,34.03
2019-03-15T18:03:26.337Z,34.38
2019-03-15T18:05:59.034Z,35.23
2019-03-15T18:08:33.372Z,35.78
2019-03-15T18:11:05.396Z,36.35
2019-03-15T18:13:40.713Z,36.73
2019-03-15T18:16:11.825Z,39.90
2019-03-15T18:18:44.765Z,39.42
2019-03-15T18:21:15.864Z,38.35
2019-03-15T18:23:54.383Z,40.35
2019-03-15T18:26:30.174Z,38.85
2019-03-15T18:29:04.105Z,36.55
2019-03-15T18:31:35.268Z,36.73
2019-03-15T18:34:06.648Z,36.58
2019-03-15T18:36:42.868Z,36.08
2019-03-15T18:39:19.938Z,36.68
2019-03-15T18:41:52.057Z,35.48
2019-03-15T18:44:27.392Z,34.80
2019-03-15T18:46:58.455Z,33.58
2019-03-15T18:49:29.599Z,31.57
2019-03-15T18:52:01.188Z,31.85
2019-03-15T18:54:32.966Z,31.40
2019-03-15T18:57:05.181Z,31.52
2019-03-15T18:59:40.251Z,29.85
2019-03-15T19:02:11.758Z,30.97
2019-03-15T19:04:44.714Z,31.65
2019-03-15T19:07:18.579Z,31.93
2019-03-15T19:09:49.536Z,32.88
2019-03-15T19:12:22.081Z,33.02
2019-03-15T19:14:53.079Z,32.93
2019-03-15T19:17:25.094Z,31.37
2019-03-15T19:20:03.451Z,29.85
2019-03-15T19:22:36.222Z,26.33
2019-03-15T19:25:11.883Z,29.67
2019-03-15T19:27:42.878Z,29.42
2019-03-15T19:30:19.930Z,29.23
2019-03-15T19:32:52.547Z,28.92
2019-03-15T19:35:27.071Z,31.47
2019-03-15T19:38:02.455Z,28.38
2019-03-15T19:40:34.324Z,29.27
2019-03-15T19:43:07.287Z,30.68
2019-03-15T19:45:39.087Z,30.55
2019-03-15T19:48:10.161Z,30.97
2019-03-15T19:50:48.729Z,31.33
2019-03-15T19:53:21.294Z,27.13
2019-03-15T19:55:52.421Z,29.97
2019-03-15T19:58:25.859Z,29.87
2019-03-15T20:01:00.243Z,30.40
2019-03-15T20:03:43.573Z,26.45
2019-03-15T20:06:03.827Z,31.70
2019-03-15T20:08:39.307Z,30.05
2019-03-15T20:11:10.358Z,30.35
2019-03-15T20:13:41.627Z,32.67
2019-03-15T20:16:15.879Z,30.80
2019-03-15T20:18:46.894Z,27.97
2019-03-15T20:21:19.462Z,27.90
2019-03-15T20:23:50.475Z,30.77
2019-03-15T20:26:23.791Z,30.32
2019-03-15T20:28:58.437Z,29.80
2019-03-15T20:31:36.524Z,30.00
2019-03-15T20:34:10.452Z,30.15
2019-03-15T20:36:46.164Z,30.05
2019-03-15T20:39:22.547Z,30.30
2019-03-15T20:41:57.745Z,29.18
2019-03-15T20:44:30.667Z,30.82
2019-03-15T20:47:03.414Z,30.30
2019-03-15T20:49:52.717Z,29.05
2019-03-15T20:52:25.337Z,30.70
2019-03-15T20:54:56.271Z,30.35
2019-03-15T20:57:29.933Z,30.80
2019-03-15T21:00:00.871Z,26.05
2019-03-15T21:02:32.015Z,30.20
2019-03-15T21:05:08.034Z,28.38
2019-03-15T21:07:43.787Z,28.87
2019-03-15T21:10:17.113Z,27.52
2019-03-15T21:12:48.192Z,29.48
2019-03-15T21:15:19.102Z,27.55
2019-03-15T21:17:50.237Z,27.30
2019-03-15T21:20:29.590Z,27.10
2019-03-15T21:23:03.733Z,27.80
2019-03-15T21:25:38.026Z,25.23
2019-03-15T21:28:10.319Z,28.60
2019-03-15T21:30:48.492Z,30.62
2019-03-15T21:33:16.885Z,24.72
2019-03-15T21:35:51.567Z,28.05
2019-03-15T21:38:23.039Z,30.15
2019-03-15T21:40:58.232Z,25.80
2019-03-15T21:46:01.858Z,24.32
2019-03-15T21:48:32.651Z,25.93
2019-03-15T21:51:03.702Z,27.15
2019-03-15T21:53:34.804Z,28.07
2019-03-15T21:56:07.857Z,27.60
2019-03-15T21:58:38.825Z,25.97
2019-03-15T22:01:12.583Z,26.15
2019-03-15T22:03:45.235Z,26.40
2019-03-15T22:06:16.147Z,25.40
2019-03-15T22:08:47.087Z,26.90
2019-03-15T22:11:21.315Z,27.25
2019-03-15T22:13:50.709Z,26.77
2019-03-15T22:16:27.051Z,28.62
2019-03-15T22:18:57.954Z,27.85
2019-03-15T22:21:28.869Z,24.70
2019-03-15T22:23:59.741Z,25.20
2019-03-15T22:26:33.518Z,28.05
2019-03-15T22:29:04.331Z,26.80
2019-03-15T22:31:35.371Z,27.85
2019-03-15T22:34:06.264Z,23.62
2019-03-15T22:36:37.124Z,24.98
2019-03-15T22:39:08.151Z,26.33
2019-03-15T22:41:39.072Z,25.08
2019-03-15T22:44:10.719Z,24.77
2019-03-15T22:46:41.726Z,27.10
2019-03-15T22:49:12.607Z,25.02
2019-03-15T22:51:43.625Z,26.12
2019-03-15T22:54:14.547Z,24.52
2019-03-15T22:56:45.465Z,28.40
2019-03-15T22:59:16.287Z,22.87
2019-03-15T23:01:47.120Z,24.32
2019-03-15T23:04:18.089Z,25.80
2019-03-15T23:06:48.899Z,23.27
2019-03-15T23:09:19.786Z,27.17
2019-03-15T23:11:50.721Z,23.18
2019-03-15T23:14:21.553Z,24.12
2019-03-15T23:16:52.479Z,23.40
2019-03-15T23:19:23.425Z,22.00
2019-03-15T23:21:55.333Z,21.17
2019-03-15T23:24:26.149Z,24.07
2019-03-15T23:26:57.137Z,23.45
2019-03-15T23:29:28.030Z,22.85
2019-03-15T23:31:59.034Z,23.70
2019-03-15T23:34:30.135Z,22.85
2019-03-15T23:37:01.268Z,23.02
2019-03-15T23:39:32.250Z,21.48
2019-03-15T23:42:03.363Z,21.80
2019-03-15T23:44:35.208Z,23.18
2019-03-15T23:47:06.106Z,22.32
2019-03-15T23:49:37.155Z,21.25
2019-03-15T23:52:08.270Z,20.48
2019-03-15T23:54:39.163Z,20.95
2019-03-15T23:57:10.061Z,20.40
2019-03-15T23:59:40.913Z,20.85
